map of NIX home
NIX - Airport
Location
City:  Nioro du Sahel, Kayes, Mali
ICAO:GANR
IATA:NIX

Details
Type:Airport (Aerodrome, Airfield)
Latitude:15°14'17"N (15.238056)
Longitude:9°34'34"W (-9.576110)
Elevation:778 ft (237 m)
Variation:4.09°W (WMM2015 magnetic declination)
0.10° annual change
Runways:1
Longest:5249 ft (1600 m)

Time
Time Zone:UTC+0
Local Time:

Weather
METAR:GANR 180000Z 00000KT CAVOK 25/07 Q1013

Related Locations
Nearby:
Farthest:LNE: 12291 mi / 19781 km
Lonorore, Pentecost (Pentecôte) Island, PAM, VU

Find:

   beyond  
but within

Other Information
Maps:
NOTAMs:
Links:
Sources:

  
  • flag of Mali
  

Sectional Chart

Flight Planning
at skyvector.com

Satellite Image

Google Maps Satellite view

 

Copyright © 2004-2018 Karl L. Swartz. All rights reserved.
The Great Circle Mapper name and logo are trademarks of the Great Circle Mapper.
All other trademarks mentioned herein belong to their respective owners.
Please see credits for attibutions and further copyright information.

  Follow gcmap on Facebook Follow gcmap on Twitter Follow gcmap on Google+ GCmap on LinkedIn

hCard Microformat

Geo Microformat